createdAt,value
2022-11-14T00:01:12.113Z,24.03
2022-11-14T00:04:44.962Z,24.33
2022-11-14T00:08:03.966Z,25.80
2022-11-14T00:11:23.010Z,28.00
2022-11-14T00:14:42.076Z,22.80
2022-11-14T00:18:00.979Z,28.87
2022-11-14T00:21:34.003Z,29.43
2022-11-14T00:24:53.020Z,24.65
2022-11-14T00:28:24.027Z,23.37
2022-11-14T00:31:58.074Z,23.55
2022-11-14T00:35:17.097Z,27.83
2022-11-14T00:38:52.072Z,24.60
2022-11-14T00:42:11.113Z,25.67
2022-11-14T00:45:42.085Z,28.65
2022-11-14T00:49:00.084Z,26.20
2022-11-14T00:52:19.142Z,27.97
2022-11-14T00:55:55.232Z,26.97
2022-11-14T00:59:13.290Z,26.67
2022-11-14T01:02:32.183Z,26.67
2022-11-14T01:06:06.158Z,30.65
2022-11-14T01:09:25.238Z,24.87
2022-11-14T01:13:01.190Z,27.60
2022-11-14T01:16:32.269Z,28.20
2022-11-14T01:19:51.206Z,26.40
2022-11-14T01:23:10.242Z,25.45
2022-11-14T01:26:29.223Z,27.27
2022-11-14T01:30:01.230Z,26.97
2022-11-14T01:33:31.237Z,27.93
2022-11-14T01:36:50.249Z,32.10
2022-11-14T01:40:09.242Z,36.93
2022-11-14T01:43:48.315Z,26.17
2022-11-14T01:47:21.329Z,31.60
2022-11-14T01:50:52.285Z,34.10
2022-11-14T01:54:23.316Z,31.67
2022-11-14T01:57:54.331Z,28.60
2022-11-14T02:01:27.372Z,26.47
2022-11-14T02:04:59.342Z,29.37
2022-11-14T02:08:33.345Z,29.27
2022-11-14T02:12:04.357Z,28.47
2022-11-14T02:15:35.358Z,30.50
2022-11-14T02:18:54.397Z,30.27
2022-11-14T02:22:27.353Z,31.93
2022-11-14T02:25:48.367Z,32.05
2022-11-14T02:29:10.376Z,29.87
2022-11-14T02:32:30.185Z,30.65
2022-11-14T02:35:47.428Z,31.00
2022-11-14T02:39:20.394Z,32.57
2022-11-14T02:42:38.444Z,33.10
2022-11-14T02:46:00.299Z,31.93
2022-11-14T02:49:16.503Z,31.80
2022-11-14T02:52:34.530Z,31.80
2022-11-14T02:56:06.517Z,28.87
2022-11-14T02:59:25.489Z,31.37
2022-11-14T03:02:56.550Z,32.80
2022-11-14T03:06:27.497Z,33.67
2022-11-14T03:09:46.628Z,30.10
2022-11-14T03:13:19.536Z,33.97
2022-11-14T03:16:53.553Z,30.43
2022-11-14T03:20:23.594Z,29.20
2022-11-14T03:23:44.589Z,28.17
2022-11-14T03:27:15.588Z,31.13
2022-11-14T03:30:51.586Z,33.63
2022-11-14T03:34:10.574Z,31.77
2022-11-14T03:37:29.685Z,30.63
2022-11-14T03:41:01.617Z,30.97
2022-11-14T03:44:20.656Z,30.97
2022-11-14T03:47:52.669Z,32.40
2022-11-14T03:51:14.673Z,28.47
2022-11-14T03:54:32.665Z,33.50
2022-11-14T03:57:51.672Z,31.37
2022-11-14T04:01:09.724Z,29.23
2022-11-14T04:04:42.647Z,28.80
2022-11-14T04:08:03.725Z,33.40
2022-11-14T04:11:33.777Z,28.33
2022-11-14T04:14:52.744Z,32.07
2022-11-14T04:18:11.736Z,34.00
2022-11-14T04:21:44.732Z,29.83
2022-11-14T04:25:02.806Z,32.65
2022-11-14T04:28:21.998Z,31.20
2022-11-14T04:31:40.863Z,33.60
2022-11-14T04:34:59.895Z,32.40
2022-11-14T04:38:33.123Z,27.83
2022-11-14T04:41:51.847Z,34.00
2022-11-14T04:45:10.878Z,29.27
2022-11-14T04:48:30.078Z,31.87
2022-11-14T04:51:48.843Z,27.40
2022-11-14T04:55:23.843Z,30.80
2022-11-14T04:58:42.873Z,30.50
2022-11-14T05:02:01.907Z,31.70
2022-11-14T05:05:20.853Z,33.33
2022-11-14T05:08:42.907Z,32.95
2022-11-14T05:12:14.858Z,29.35
2022-11-14T05:15:32.902Z,29.57
2022-11-14T05:19:04.462Z,29.93
2022-11-14T05:22:22.949Z,37.23
2022-11-14T05:25:41.947Z,29.17
2022-11-14T05:29:15.054Z,31.70
2022-11-14T05:32:32.998Z,36.40
2022-11-14T05:35:51.933Z,36.50
2022-11-14T05:39:14.005Z,31.00
2022-11-14T05:42:32.997Z,34.60
2022-11-14T05:46:04.979Z,32.10
2022-11-14T05:49:24.011Z,35.83
2022-11-14T05:52:56.085Z,31.57
2022-11-14T05:56:29.068Z,33.93
2022-11-14T05:59:49.104Z,36.10
2022-11-14T06:03:22.059Z,33.60
2022-11-14T06:06:41.101Z,36.20
2022-11-14T06:10:03.043Z,35.53
2022-11-14T06:13:22.098Z,34.45
2022-11-14T06:16:41.156Z,32.70
2022-11-14T06:20:14.214Z,38.57
2022-11-14T06:23:35.096Z,35.70
2022-11-14T06:26:54.149Z,31.47
2022-11-14T06:30:13.120Z,29.97
2022-11-14T06:33:32.164Z,33.83
2022-11-14T06:37:05.171Z,33.60
2022-11-14T06:40:25.176Z,34.17
2022-11-14T06:43:59.301Z,37.00
2022-11-14T06:47:18.329Z,36.35
2022-11-14T06:50:36.203Z,32.45
2022-11-14T06:54:09.215Z,32.43
2022-11-14T06:57:27.277Z,34.70
2022-11-14T07:00:46.256Z,31.60
2022-11-14T07:04:17.267Z,33.70
2022-11-14T07:07:39.473Z,35.33
2022-11-14T07:11:11.297Z,34.30
2022-11-14T07:14:30.318Z,37.30
2022-11-14T07:17:52.283Z,38.03
2022-11-14T07:21:24.304Z,33.23
2022-11-14T07:24:43.376Z,33.03
2022-11-14T07:28:15.315Z,35.00
2022-11-14T07:31:45.342Z,34.30
2022-11-14T07:35:04.346Z,33.40
2022-11-14T07:38:23.363Z,37.33
2022-11-14T07:41:42.388Z,34.23
2022-11-14T07:45:15.386Z,34.90
2022-11-14T07:48:35.363Z,39.05
2022-11-14T07:51:53.385Z,35.80
2022-11-14T07:55:12.446Z,31.80
2022-11-14T07:58:31.846Z,33.57
2022-11-14T08:02:07.514Z,37.37
2022-11-14T08:05:37.465Z,32.60
2022-11-14T08:08:56.483Z,37.30
2022-11-14T08:12:22.557Z,35.80
2022-11-14T08:15:53.476Z,34.27
2022-11-14T08:19:28.488Z,34.37
2022-11-14T08:22:47.588Z,32.13
2022-11-14T08:26:06.604Z,32.87
2022-11-14T08:29:25.745Z,35.43
2022-11-14T08:32:43.552Z,34.73
2022-11-14T08:36:15.561Z,36.97
2022-11-14T08:39:34.545Z,36.47
2022-11-14T08:42:55.548Z,34.57
2022-11-14T08:46:26.590Z,35.63
2022-11-14T08:49:45.547Z,36.10
2022-11-14T08:53:21.627Z,35.23
2022-11-14T08:56:40.568Z,32.97
2022-11-14T08:59:59.598Z,32.80
2022-11-14T09:03:32.663Z,35.87
2022-11-14T09:06:51.691Z,32.10
2022-11-14T09:10:27.618Z,38.53
2022-11-14T09:13:58.684Z,32.97
2022-11-14T09:17:29.634Z,32.23
2022-11-14T09:20:48.657Z,35.70
2022-11-14T09:24:22.653Z,31.13
2022-11-14T09:27:54.702Z,31.23
2022-11-14T09:31:26.699Z,32.75
2022-11-14T09:34:49.763Z,29.15
2022-11-14T09:38:26.774Z,29.70
2022-11-14T09:41:59.850Z,32.30
2022-11-14T09:45:35.728Z,30.97
2022-11-14T09:49:09.918Z,34.33
2022-11-14T09:52:41.769Z,30.90
2022-11-14T09:56:00.820Z,28.93
2022-11-14T09:59:36.814Z,31.17
2022-11-14T10:03:15.845Z,34.20
2022-11-14T10:06:48.879Z,30.27
2022-11-14T10:10:21.831Z,27.95
2022-11-14T10:14:01.814Z,27.03
2022-11-14T10:17:34.824Z,28.93
2022-11-14T10:21:07.876Z,28.90
2022-11-14T10:24:41.866Z,29.90
2022-11-14T10:28:13.947Z,25.73
2022-11-14T10:31:45.896Z,25.80
2022-11-14T10:35:17.888Z,27.30
2022-11-14T10:38:50.931Z,27.40
2022-11-14T10:42:21.922Z,27.07
2022-11-14T10:45:52.962Z,26.67
2022-11-14T10:49:22.920Z,28.25
2022-11-14T10:52:59.959Z,29.60
2022-11-14T10:56:32.952Z,27.25
2022-11-14T10:59:51.978Z,26.27
2022-11-14T11:03:11.000Z,23.37
2022-11-14T11:06:52.105Z,22.63
2022-11-14T11:10:29.240Z,22.27
2022-11-14T11:14:04.028Z,24.27
2022-11-14T11:17:43.096Z,22.47
2022-11-14T11:21:14.122Z,22.67
2022-11-14T11:24:55.213Z,25.10
2022-11-14T11:28:29.352Z,20.93
2022-11-14T11:32:15.089Z,21.10
2022-11-14T11:35:33.080Z,20.73
2022-11-14T11:39:05.112Z,23.53
2022-11-14T11:43:23.887Z,22.17
2022-11-14T11:46:07.177Z,21.57
2022-11-14T11:49:40.122Z,22.55
2022-11-14T11:53:11.163Z,17.10
2022-11-14T11:56:41.191Z,19.70
2022-11-14T12:00:11.169Z,20.37
2022-11-14T12:03:42.277Z,19.97
2022-11-14T12:07:14.227Z,20.37
2022-11-14T12:10:45.215Z,21.60
2022-11-14T12:14:44.215Z,20.47
2022-11-14T12:18:21.262Z,18.73
2022-11-14T12:22:00.203Z,19.03
2022-11-14T12:25:35.266Z,19.50
2022-11-14T12:29:09.338Z,17.47
2022-11-14T12:32:40.475Z,19.25
2022-11-14T12:36:12.264Z,17.95
2022-11-14T12:39:47.263Z,15.63
2022-11-14T12:43:19.291Z,17.90
2022-11-14T12:46:38.376Z,18.53
2022-11-14T12:50:28.365Z,17.25
2022-11-14T12:54:05.359Z,19.40
2022-11-14T12:57:38.369Z,14.75
2022-11-14T13:01:21.473Z,15.47
2022-11-14T13:04:54.377Z,16.35
2022-11-14T13:08:29.483Z,17.73
2022-11-14T13:12:06.136Z,17.10
2022-11-14T13:15:50.029Z,15.75
2022-11-14T13:19:29.005Z,15.37
2022-11-14T13:23:01.402Z,15.75
2022-11-14T13:26:38.448Z,16.73
2022-11-14T13:30:18.452Z,17.65
2022-11-14T13:33:52.627Z,16.00
2022-11-14T13:37:24.451Z,14.30
2022-11-14T13:40:59.533Z,13.13
2022-11-14T13:44:34.483Z,15.03
2022-11-14T13:48:15.498Z,13.53
2022-11-14T13:51:48.530Z,15.00
2022-11-14T13:55:21.515Z,16.50
2022-11-14T13:58:56.600Z,17.40
2022-11-14T14:02:32.519Z,15.50
2022-11-14T14:06:05.946Z,15.10
2022-11-14T14:09:40.558Z,13.45
2022-11-14T14:13:15.638Z,15.15
2022-11-14T14:16:50.562Z,13.80
2022-11-14T14:20:23.587Z,12.43
2022-11-14T14:23:56.590Z,11.37
2022-11-14T14:27:27.590Z,16.37
2022-11-14T14:31:03.657Z,13.37
2022-11-14T14:34:47.626Z,14.75
2022-11-14T14:38:17.708Z,16.80
2022-11-14T14:41:36.670Z,13.70
2022-11-14T14:45:06.661Z,13.63
2022-11-14T14:48:39.679Z,13.10
2022-11-14T14:52:01.719Z,16.27
2022-11-14T14:55:32.720Z,12.05
2022-11-14T14:58:50.709Z,12.60
2022-11-14T15:02:20.717Z,11.63
2022-11-14T15:05:51.704Z,11.27
2022-11-14T15:09:21.698Z,13.13
2022-11-14T15:12:52.772Z,11.70
2022-11-14T15:16:25.752Z,12.03
2022-11-14T15:20:00.066Z,13.40
2022-11-14T15:23:31.772Z,10.77
2022-11-14T15:26:49.793Z,11.03
2022-11-14T15:30:22.823Z,10.97
2022-11-14T15:33:53.971Z,14.15
2022-11-14T15:37:45.852Z,11.50
2022-11-14T15:41:20.828Z,11.00
2022-11-14T15:44:55.862Z,12.77
2022-11-14T15:48:26.912Z,12.77
2022-11-14T15:51:58.122Z,11.05
2022-11-14T15:55:27.891Z,11.90
2022-11-14T15:58:49.482Z,13.33
2022-11-14T16:02:20.911Z,13.90
2022-11-14T16:05:50.979Z,12.10
2022-11-14T16:09:08.926Z,12.03
2022-11-14T16:12:41.950Z,12.10
2022-11-14T16:16:01.022Z,12.10
2022-11-14T16:19:35.007Z,13.83
2022-11-14T16:22:53.945Z,11.30
2022-11-14T16:26:13.053Z,11.23
2022-11-14T16:29:31.988Z,11.27
2022-11-14T16:32:54.023Z,13.67
2022-11-14T16:36:27.015Z,10.25
2022-11-14T16:39:48.980Z,11.55
2022-11-14T16:43:19.080Z,9.83
2022-11-14T16:46:38.044Z,15.10
2022-11-14T16:49:57.132Z,14.37
2022-11-14T16:53:30.400Z,13.17
2022-11-14T16:56:49.066Z,12.40
2022-11-14T17:00:07.085Z,13.70
2022-11-14T17:03:26.103Z,11.37
2022-11-14T17:06:45.236Z,9.87
2022-11-14T17:10:21.146Z,11.30
2022-11-14T17:13:56.162Z,13.60
2022-11-14T17:17:16.137Z,14.13
2022-11-14T17:20:35.149Z,12.20
2022-11-14T17:23:54.201Z,13.03
2022-11-14T17:27:27.241Z,15.13
2022-11-14T17:30:46.166Z,15.90
2022-11-14T17:34:20.187Z,14.15
2022-11-14T17:37:39.204Z,11.80
2022-11-14T17:41:10.243Z,15.60
2022-11-14T17:44:43.217Z,14.60
2022-11-14T17:48:03.254Z,13.70
2022-11-14T17:51:33.244Z,15.20
2022-11-14T17:55:07.248Z,14.07
2022-11-14T17:58:37.307Z,16.80
2022-11-14T18:02:12.415Z,12.13
2022-11-14T18:05:31.313Z,13.77
2022-11-14T18:08:53.302Z,11.30
2022-11-14T18:12:11.326Z,15.27
2022-11-14T18:15:30.348Z,13.90
2022-11-14T18:19:01.350Z,15.90
2022-11-14T18:22:20.320Z,14.83
2022-11-14T18:25:38.346Z,13.83
2022-11-14T18:29:01.572Z,17.37
2022-11-14T18:32:29.364Z,14.53
2022-11-14T18:36:02.404Z,16.10
2022-11-14T18:39:21.388Z,17.05
2022-11-14T18:42:40.390Z,16.83
2022-11-14T18:45:59.410Z,15.07
2022-11-14T18:49:33.434Z,16.37
2022-11-14T18:53:06.412Z,17.75
2022-11-14T18:56:37.443Z,15.03
2022-11-14T18:59:56.479Z,18.53
2022-11-14T19:03:15.461Z,16.00
2022-11-14T19:06:46.613Z,14.80
2022-11-14T19:10:19.468Z,14.50
2022-11-14T19:13:38.500Z,16.45
2022-11-14T19:16:57.562Z,14.35
2022-11-14T19:20:20.525Z,16.30
2022-11-14T19:23:57.556Z,13.57
2022-11-14T19:27:30.547Z,16.37
2022-11-14T19:30:49.538Z,15.43
2022-11-14T19:34:20.605Z,15.90
2022-11-14T19:37:39.633Z,13.60
2022-11-14T19:41:03.544Z,16.65
2022-11-14T19:44:34.566Z,14.97
2022-11-14T19:47:53.586Z,13.87
2022-11-14T19:51:25.579Z,14.37
2022-11-14T19:54:50.719Z,14.10
2022-11-14T19:58:22.673Z,15.30
2022-11-14T20:01:57.679Z,12.20
2022-11-14T20:05:28.675Z,11.80
2022-11-14T20:09:00.656Z,13.43
2022-11-14T20:12:34.702Z,15.70
2022-11-14T20:16:04.808Z,17.90
2022-11-14T20:19:40.836Z,14.83
2022-11-14T20:22:58.722Z,13.67
2022-11-14T20:26:29.786Z,13.97
2022-11-14T20:29:52.751Z,15.03
2022-11-14T20:33:11.743Z,13.27
2022-11-14T20:40:17.774Z,13.93
2022-11-14T20:43:48.817Z,10.30
2022-11-14T20:47:11.336Z,14.77
2022-11-14T20:50:46.775Z,14.80
2022-11-14T20:54:19.795Z,13.05
2022-11-14T20:57:38.825Z,13.50
2022-11-14T21:00:58.820Z,12.60
2022-11-14T21:04:18.811Z,13.30
2022-11-14T21:07:36.878Z,13.23
2022-11-14T21:11:08.882Z,13.03
2022-11-14T21:14:26.863Z,12.00
2022-11-14T21:17:45.876Z,11.95
2022-11-14T21:21:22.853Z,13.70
2022-11-14T21:24:41.933Z,9.83
2022-11-14T21:28:12.994Z,12.07
2022-11-14T21:31:44.943Z,11.30
2022-11-14T21:35:09.412Z,11.00
2022-11-14T21:38:22.929Z,13.30
2022-11-14T21:41:53.908Z,10.63
2022-11-14T21:45:27.005Z,9.67
2022-11-14T21:49:01.008Z,12.73
2022-11-14T21:52:19.995Z,10.90
2022-11-14T21:55:37.986Z,12.60
2022-11-14T21:59:07.988Z,11.53
2022-11-14T22:02:44.524Z,10.20
2022-11-14T22:06:19.998Z,10.50
2022-11-14T22:09:51.054Z,11.70
2022-11-14T22:13:13.034Z,10.83
2022-11-14T22:16:32.066Z,10.40
2022-11-14T22:20:04.070Z,9.63
2022-11-14T22:23:23.095Z,9.97
2022-11-14T22:26:54.166Z,8.40
2022-11-14T22:30:13.139Z,10.80
2022-11-14T22:33:32.416Z,10.17
2022-11-14T22:37:04.114Z,10.33
2022-11-14T22:40:24.127Z,11.90
2022-11-14T22:43:58.119Z,10.73
2022-11-14T22:47:17.167Z,10.13
2022-11-14T22:50:48.154Z,12.07
2022-11-14T22:54:21.218Z,12.77
2022-11-14T22:57:39.158Z,12.10
2022-11-14T23:00:57.196Z,10.47
2022-11-14T23:04:28.201Z,10.57
2022-11-14T23:07:48.222Z,10.30
2022-11-14T23:11:27.210Z,8.97
2022-11-14T23:14:45.213Z,12.63
2022-11-14T23:17:55.297Z,11.95
2022-11-14T23:21:29.329Z,8.20
2022-11-14T23:24:48.244Z,10.97
2022-11-14T23:28:20.239Z,7.60
2022-11-14T23:31:51.360Z,10.73
2022-11-14T23:35:10.323Z,9.55
2022-11-14T23:38:44.276Z,10.95
2022-11-14T23:42:02.329Z,9.67
2022-11-14T23:45:34.323Z,10.37
2022-11-14T23:49:06.333Z,13.00
2022-11-14T23:52:25.372Z,9.67
2022-11-14T23:55:43.390Z,9.20
2022-11-14T23:59:05.388Z,10.63
